Disclaimer

Please do not use the information listed here in-flight or in-navigation, as they are not provided to us by the airports but are provided by volunteers, so they might be outdated.

Search


Regions


Airport information page

Radio informations:
Tower (TWR) - 118.5 MHz
Ground (GND) - 121.8 MHz
Automatic Terminal Information Service (ATIS) - 128.2 MHz
Approach (APP) - 119.4 MHz

Airport informations:
Latitude: 06° 19' 47.02" N
Longitude: 099° 43' 43.20" E
Elevation: 29 feet - 9 meters
Operating hours: Remarks
Operating agency: Civil government, landing fees and diplomatic clearance may be required
Timezone: UTC+8
Fuel: Jet A1+, Jet A1 with icing inhibitor.

Runway information:
03/21 - 12500 x 148 feet< - >3810 x 45 meters

Recent METARs:
WMKL 180800Z 24004KT 170V290 9999 FEW022 SCT140 BKN270 31/26 Q1009
WMKL 180800Z 24004KT 170V290 9999 FEW022 SCT140 BKN270 31/26 Q1009
WMKL 180900Z 25005KT 170V340 9999 FEW020TCU SCT140 BKN270 31/26 Q1009

Airport on the map: